sensor_id;sensor_type;location;lat;lon;timestamp;P1;durP1;ratioP1;P2;durP2;ratioP2
9166;SDS011;4618;48.818;9.088;2023-06-10T00:01:28;8.20;;;7.50;;
9166;SDS011;4618;48.818;9.088;2023-06-10T00:03:55;10.87;;;9.97;;
9166;SDS011;4618;48.818;9.088;2023-06-10T00:06:20;12.80;;;11.50;;
9166;SDS011;4618;48.818;9.088;2023-06-10T00:08:49;13.30;;;12.10;;
9166;SDS011;4618;48.818;9.088;2023-06-10T00:11:15;12.93;;;11.83;;
9166;SDS011;4618;48.818;9.088;2023-06-10T00:13:40;12.80;;;11.40;;
9166;SDS011;4618;48.818;9.088;2023-06-10T00:16:06;11.07;;;10.07;;
9166;SDS011;4618;48.818;9.088;2023-06-10T00:18:32;11.27;;;10.10;;
9166;SDS011;4618;48.818;9.088;2023-06-10T00:20:57;10.70;;;9.60;;
9166;SDS011;4618;48.818;9.088;2023-06-10T00:23:29;10.77;;;9.70;;
9166;SDS011;4618;48.818;9.088;2023-06-10T00:25:56;9.80;;;9.00;;
9166;SDS011;4618;48.818;9.088;2023-06-10T00:28:24;10.87;;;9.87;;
9166;SDS011;4618;48.818;9.088;2023-06-10T00:30:51;11.33;;;10.33;;
9166;SDS011;4618;48.818;9.088;2023-06-10T00:33:16;10.47;;;9.47;;
9166;SDS011;4618;48.818;9.088;2023-06-10T00:35:42;11.00;;;9.80;;
9166;SDS011;4618;48.818;9.088;2023-06-10T00:38:07;10.57;;;9.57;;
9166;SDS011;4618;48.818;9.088;2023-06-10T00:40:35;9.00;;;8.30;;
9166;SDS011;4618;48.818;9.088;2023-06-10T00:43:04;8.73;;;8.00;;
9166;SDS011;4618;48.818;9.088;2023-06-10T00:45:29;8.87;;;8.23;;
9166;SDS011;4618;48.818;9.088;2023-06-10T00:47:55;9.80;;;8.90;;
9166;SDS011;4618;48.818;9.088;2023-06-10T00:50:21;9.43;;;8.60;;
9166;SDS011;4618;48.818;9.088;2023-06-10T00:52:46;10.30;;;9.40;;
9166;SDS011;4618;48.818;9.088;2023-06-10T00:55:13;10.00;;;9.17;;
9166;SDS011;4618;48.818;9.088;2023-06-10T00:57:41;10.23;;;9.30;;
9166;SDS011;4618;48.818;9.088;2023-06-10T01:00:10;9.73;;;8.90;;
9166;SDS011;4618;48.818;9.088;2023-06-10T01:02:36;10.57;;;9.63;;
9166;SDS011;4618;48.818;9.088;2023-06-10T01:05:01;10.27;;;9.43;;
9166;SDS011;4618;48.818;9.088;2023-06-10T01:07:31;11.07;;;10.13;;
9166;SDS011;4618;48.818;9.088;2023-06-10T01:10:24;12.63;;;11.40;;
9166;SDS011;4618;48.818;9.088;2023-06-10T01:12:59;12.23;;;11.13;;
9166;SDS011;4618;48.818;9.088;2023-06-10T01:15:33;12.03;;;11.03;;
9166;SDS011;4618;48.818;9.088;2023-06-10T01:18:03;11.70;;;10.80;;
9166;SDS011;4618;48.818;9.088;2023-06-10T01:20:34;11.70;;;10.70;;
9166;SDS011;4618;48.818;9.088;2023-06-10T01:23:02;11.90;;;10.53;;
9166;SDS011;4618;48.818;9.088;2023-06-10T01:25:28;14.03;;;11.37;;
9166;SDS011;4618;48.818;9.088;2023-06-10T01:28:02;10.80;;;9.90;;
9166;SDS011;4618;48.818;9.088;2023-06-10T01:33:26;14.47;;;13.17;;
9166;SDS011;4618;48.818;9.088;2023-06-10T01:35:53;12.50;;;11.33;;
9166;SDS011;4618;48.818;9.088;2023-06-10T01:38:21;11.80;;;10.73;;
9166;SDS011;4618;48.818;9.088;2023-06-10T01:40:50;12.80;;;11.43;;
9166;SDS011;4618;48.818;9.088;2023-06-10T01:43:19;12.43;;;11.23;;
9166;SDS011;4618;48.818;9.088;2023-06-10T01:45:45;12.03;;;10.97;;
9166;SDS011;4618;48.818;9.088;2023-06-10T01:48:11;12.97;;;11.77;;
9166;SDS011;4618;48.818;9.088;2023-06-10T01:50:37;13.80;;;12.60;;
9166;SDS011;4618;48.818;9.088;2023-06-10T01:53:03;13.20;;;12.07;;
9166;SDS011;4618;48.818;9.088;2023-06-10T01:55:29;13.20;;;11.87;;
9166;SDS011;4618;48.818;9.088;2023-06-10T01:57:54;13.23;;;11.93;;
9166;SDS011;4618;48.818;9.088;2023-06-10T02:00:20;13.30;;;12.10;;
9166;SDS011;4618;48.818;9.088;2023-06-10T02:02:46;11.63;;;10.73;;
9166;SDS011;4618;48.818;9.088;2023-06-10T02:05:11;12.47;;;11.17;;
9166;SDS011;4618;48.818;9.088;2023-06-10T02:07:37;12.17;;;11.07;;
9166;SDS011;4618;48.818;9.088;2023-06-10T02:10:03;13.03;;;11.87;;
9166;SDS011;4618;48.818;9.088;2023-06-10T02:12:30;12.20;;;11.00;;
9166;SDS011;4618;48.818;9.088;2023-06-10T02:14:55;12.33;;;11.10;;
9166;SDS011;4618;48.818;9.088;2023-06-10T02:17:21;12.03;;;11.07;;
9166;SDS011;4618;48.818;9.088;2023-06-10T02:19:48;11.27;;;10.37;;
9166;SDS011;4618;48.818;9.088;2023-06-10T02:22:21;10.90;;;10.00;;
9166;SDS011;4618;48.818;9.088;2023-06-10T02:24:47;10.40;;;9.50;;
9166;SDS011;4618;48.818;9.088;2023-06-10T02:27:13;9.73;;;8.77;;
9166;SDS011;4618;48.818;9.088;2023-06-10T02:29:39;10.60;;;9.50;;
9166;SDS011;4618;48.818;9.088;2023-06-10T02:32:06;12.10;;;9.43;;
9166;SDS011;4618;48.818;9.088;2023-06-10T02:34:32;10.10;;;9.30;;
9166;SDS011;4618;48.818;9.088;2023-06-10T02:36:58;10.37;;;9.37;;
9166;SDS011;4618;48.818;9.088;2023-06-10T02:39:24;11.27;;;10.27;;
9166;SDS011;4618;48.818;9.088;2023-06-10T02:41:50;12.83;;;11.73;;
9166;SDS011;4618;48.818;9.088;2023-06-10T02:44:17;14.80;;;13.20;;
9166;SDS011;4618;48.818;9.088;2023-06-10T02:46:43;13.97;;;12.47;;
9166;SDS011;4618;48.818;9.088;2023-06-10T02:49:09;14.37;;;12.97;;
9166;SDS011;4618;48.818;9.088;2023-06-10T02:51:34;15.10;;;13.67;;
9166;SDS011;4618;48.818;9.088;2023-06-10T02:54:01;13.67;;;12.20;;
9166;SDS011;4618;48.818;9.088;2023-06-10T02:56:26;13.40;;;12.20;;
9166;SDS011;4618;48.818;9.088;2023-06-10T02:58:52;12.73;;;11.63;;
9166;SDS011;4618;48.818;9.088;2023-06-10T03:01:18;13.07;;;11.87;;
9166;SDS011;4618;48.818;9.088;2023-06-10T03:03:44;13.53;;;12.33;;
9166;SDS011;4618;48.818;9.088;2023-06-10T03:06:11;14.80;;;13.47;;
9166;SDS011;4618;48.818;9.088;2023-06-10T03:08:38;13.53;;;12.40;;
9166;SDS011;4618;48.818;9.088;2023-06-10T03:11:04;13.77;;;12.47;;
9166;SDS011;4618;48.818;9.088;2023-06-10T03:13:30;14.10;;;12.90;;
9166;SDS011;4618;48.818;9.088;2023-06-10T03:15:55;14.10;;;12.90;;
9166;SDS011;4618;48.818;9.088;2023-06-10T03:18:21;15.00;;;13.50;;
9166;SDS011;4618;48.818;9.088;2023-06-10T03:20:51;12.97;;;11.50;;
9166;SDS011;4618;48.818;9.088;2023-06-10T03:23:16;13.90;;;12.37;;
9166;SDS011;4618;48.818;9.088;2023-06-10T03:25:43;13.97;;;12.70;;
9166;SDS011;4618;48.818;9.088;2023-06-10T03:28:09;13.17;;;12.17;;
9166;SDS011;4618;48.818;9.088;2023-06-10T03:30:35;12.90;;;11.70;;
9166;SDS011;4618;48.818;9.088;2023-06-10T03:33:00;13.37;;;11.97;;
9166;SDS011;4618;48.818;9.088;2023-06-10T03:35:26;14.47;;;13.03;;
9166;SDS011;4618;48.818;9.088;2023-06-10T03:37:52;13.07;;;11.90;;
9166;SDS011;4618;48.818;9.088;2023-06-10T03:40:17;13.27;;;12.20;;
9166;SDS011;4618;48.818;9.088;2023-06-10T03:42:43;11.13;;;10.23;;
9166;SDS011;4618;48.818;9.088;2023-06-10T03:45:09;11.27;;;10.27;;
9166;SDS011;4618;48.818;9.088;2023-06-10T03:47:35;9.33;;;8.63;;
9166;SDS011;4618;48.818;9.088;2023-06-10T03:50:02;10.17;;;9.17;;
9166;SDS011;4618;48.818;9.088;2023-06-10T03:52:29;10.53;;;9.63;;
9166;SDS011;4618;48.818;9.088;2023-06-10T03:54:55;10.70;;;9.70;;
9166;SDS011;4618;48.818;9.088;2023-06-10T03:57:20;11.50;;;10.53;;
9166;SDS011;4618;48.818;9.088;2023-06-10T03:59:46;10.70;;;9.83;;
9166;SDS011;4618;48.818;9.088;2023-06-10T04:02:11;10.87;;;9.90;;
9166;SDS011;4618;48.818;9.088;2023-06-10T04:04:37;10.73;;;9.73;;
9166;SDS011;4618;48.818;9.088;2023-06-10T04:07:03;12.03;;;10.87;;
9166;SDS011;4618;48.818;9.088;2023-06-10T04:09:30;10.70;;;9.70;;
9166;SDS011;4618;48.818;9.088;2023-06-10T04:11:55;11.40;;;10.40;;
9166;SDS011;4618;48.818;9.088;2023-06-10T04:14:21;10.63;;;9.83;;
9166;SDS011;4618;48.818;9.088;2023-06-10T04:16:46;10.70;;;9.80;;
9166;SDS011;4618;48.818;9.088;2023-06-10T04:19:12;11.10;;;10.10;;
9166;SDS011;4618;48.818;9.088;2023-06-10T04:21:38;11.90;;;10.87;;
9166;SDS011;4618;48.818;9.088;2023-06-10T04:24:03;11.37;;;10.37;;
9166;SDS011;4618;48.818;9.088;2023-06-10T04:26:29;10.27;;;9.43;;
9166;SDS011;4618;48.818;9.088;2023-06-10T04:28:54;11.03;;;9.87;;
9166;SDS011;4618;48.818;9.088;2023-06-10T04:31:20;10.77;;;9.67;;
9166;SDS011;4618;48.818;9.088;2023-06-10T04:33:46;11.27;;;10.27;;
9166;SDS011;4618;48.818;9.088;2023-06-10T04:36:11;12.50;;;11.20;;
9166;SDS011;4618;48.818;9.088;2023-06-10T04:38:37;11.40;;;10.43;;
9166;SDS011;4618;48.818;9.088;2023-06-10T04:41:02;10.87;;;9.87;;
9166;SDS011;4618;48.818;9.088;2023-06-10T04:43:28;11.40;;;10.27;;
9166;SDS011;4618;48.818;9.088;2023-06-10T04:45:55;11.07;;;10.07;;
9166;SDS011;4618;48.818;9.088;2023-06-10T04:48:21;10.57;;;9.73;;
9166;SDS011;4618;48.818;9.088;2023-06-10T04:50:48;9.90;;;9.20;;
9166;SDS011;4618;48.818;9.088;2023-06-10T04:53:15;10.30;;;9.43;;
9166;SDS011;4618;48.818;9.088;2023-06-10T04:55:41;10.13;;;9.20;;
9166;SDS011;4618;48.818;9.088;2023-06-10T04:58:07;10.60;;;9.60;;
9166;SDS011;4618;48.818;9.088;2023-06-10T05:00:32;11.30;;;10.20;;
9166;SDS011;4618;48.818;9.088;2023-06-10T05:02:58;10.80;;;9.90;;
9166;SDS011;4618;48.818;9.088;2023-06-10T05:05:23;10.00;;;9.00;;
9166;SDS011;4618;48.818;9.088;2023-06-10T05:07:49;10.13;;;9.23;;
9166;SDS011;4618;48.818;9.088;2023-06-10T05:10:14;10.23;;;9.10;;
9166;SDS011;4618;48.818;9.088;2023-06-10T05:12:40;10.20;;;9.30;;
9166;SDS011;4618;48.818;9.088;2023-06-10T05:15:06;9.97;;;9.03;;
9166;SDS011;4618;48.818;9.088;2023-06-10T05:17:32;10.23;;;9.33;;
9166;SDS011;4618;48.818;9.088;2023-06-10T05:19:58;10.80;;;10.00;;
9166;SDS011;4618;48.818;9.088;2023-06-10T05:22:23;10.50;;;9.40;;
9166;SDS011;4618;48.818;9.088;2023-06-10T05:24:49;9.73;;;8.90;;
9166;SDS011;4618;48.818;9.088;2023-06-10T05:27:16;10.50;;;9.60;;
9166;SDS011;4618;48.818;9.088;2023-06-10T05:29:41;10.63;;;9.73;;
9166;SDS011;4618;48.818;9.088;2023-06-10T05:32:07;10.27;;;9.43;;
9166;SDS011;4618;48.818;9.088;2023-06-10T05:34:33;10.70;;;9.67;;
9166;SDS011;4618;48.818;9.088;2023-06-10T05:36:59;10.43;;;9.53;;
9166;SDS011;4618;48.818;9.088;2023-06-10T05:39:24;9.83;;;8.83;;
9166;SDS011;4618;48.818;9.088;2023-06-10T05:41:50;9.40;;;8.63;;
9166;SDS011;4618;48.818;9.088;2023-06-10T05:44:15;10.30;;;9.37;;
9166;SDS011;4618;48.818;9.088;2023-06-10T05:46:41;9.40;;;8.50;;
9166;SDS011;4618;48.818;9.088;2023-06-10T05:49:06;10.00;;;9.00;;
9166;SDS011;4618;48.818;9.088;2023-06-10T05:51:32;8.77;;;7.97;;
9166;SDS011;4618;48.818;9.088;2023-06-10T05:53:57;9.60;;;8.67;;
9166;SDS011;4618;48.818;9.088;2023-06-10T05:56:23;9.57;;;8.70;;
9166;SDS011;4618;48.818;9.088;2023-06-10T05:58:49;8.47;;;7.80;;
9166;SDS011;4618;48.818;9.088;2023-06-10T06:01:16;8.60;;;7.80;;
9166;SDS011;4618;48.818;9.088;2023-06-10T06:03:42;7.73;;;7.00;;
9166;SDS011;4618;48.818;9.088;2023-06-10T06:06:07;10.07;;;7.93;;
9166;SDS011;4618;48.818;9.088;2023-06-10T06:08:33;7.90;;;7.13;;
9166;SDS011;4618;48.818;9.088;2023-06-10T06:10:58;8.40;;;7.20;;
9166;SDS011;4618;48.818;9.088;2023-06-10T06:13:24;6.80;;;6.30;;
9166;SDS011;4618;48.818;9.088;2023-06-10T06:15:50;6.50;;;5.97;;
9166;SDS011;4618;48.818;9.088;2023-06-10T06:18:15;6.00;;;5.37;;
9166;SDS011;4618;48.818;9.088;2023-06-10T06:20:41;5.80;;;5.30;;
9166;SDS011;4618;48.818;9.088;2023-06-10T06:23:06;5.17;;;4.73;;
9166;SDS011;4618;48.818;9.088;2023-06-10T06:25:34;5.80;;;5.33;;
9166;SDS011;4618;48.818;9.088;2023-06-10T06:28:01;5.30;;;4.90;;
9166;SDS011;4618;48.818;9.088;2023-06-10T06:30:27;5.80;;;5.30;;
9166;SDS011;4618;48.818;9.088;2023-06-10T06:32:52;7.60;;;4.80;;
9166;SDS011;4618;48.818;9.088;2023-06-10T06:35:18;5.50;;;5.07;;
9166;SDS011;4618;48.818;9.088;2023-06-10T06:37:43;5.27;;;4.93;;
9166;SDS011;4618;48.818;9.088;2023-06-10T06:40:09;6.00;;;5.50;;
9166;SDS011;4618;48.818;9.088;2023-06-10T06:42:35;5.47;;;4.97;;
9166;SDS011;4618;48.818;9.088;2023-06-10T06:45:01;6.33;;;4.97;;
9166;SDS011;4618;48.818;9.088;2023-06-10T06:47:27;6.80;;;6.30;;
9166;SDS011;4618;48.818;9.088;2023-06-10T06:49:52;5.53;;;5.13;;
9166;SDS011;4618;48.818;9.088;2023-06-10T06:52:18;5.43;;;5.03;;
9166;SDS011;4618;48.818;9.088;2023-06-10T06:54:44;7.10;;;5.03;;
9166;SDS011;4618;48.818;9.088;2023-06-10T06:57:10;5.13;;;4.77;;
9166;SDS011;4618;48.818;9.088;2023-06-10T06:59:35;5.60;;;5.10;;
9166;SDS011;4618;48.818;9.088;2023-06-10T07:02:02;5.63;;;5.23;;
9166;SDS011;4618;48.818;9.088;2023-06-10T07:04:28;4.90;;;4.60;;
9166;SDS011;4618;48.818;9.088;2023-06-10T07:06:54;5.27;;;4.87;;
9166;SDS011;4618;48.818;9.088;2023-06-10T07:09:19;5.17;;;4.77;;
9166;SDS011;4618;48.818;9.088;2023-06-10T07:11:45;6.63;;;4.97;;
9166;SDS011;4618;48.818;9.088;2023-06-10T07:14:10;5.40;;;5.00;;
9166;SDS011;4618;48.818;9.088;2023-06-10T07:16:36;5.03;;;4.70;;
9166;SDS011;4618;48.818;9.088;2023-06-10T07:19:01;5.17;;;4.67;;
9166;SDS011;4618;48.818;9.088;2023-06-10T07:21:27;5.70;;;4.67;;
9166;SDS011;4618;48.818;9.088;2023-06-10T07:23:54;4.93;;;4.50;;
9166;SDS011;4618;48.818;9.088;2023-06-10T07:26:23;4.78;;;4.38;;
9166;SDS011;4618;48.818;9.088;2023-06-10T07:28:50;5.45;;;4.30;;
9166;SDS011;4618;48.818;9.088;2023-06-10T07:31:16;5.82;;;4.63;;
9166;SDS011;4618;48.818;9.088;2023-06-10T07:33:41;4.53;;;4.15;;
9166;SDS011;4618;48.818;9.088;2023-06-10T07:36:08;4.22;;;3.90;;
9166;SDS011;4618;48.818;9.088;2023-06-10T07:38:34;6.75;;;3.58;;
9166;SDS011;4618;48.818;9.088;2023-06-10T07:41:00;4.53;;;3.78;;
9166;SDS011;4618;48.818;9.088;2023-06-10T07:43:26;4.30;;;4.00;;
9166;SDS011;4618;48.818;9.088;2023-06-10T07:45:52;4.35;;;4.07;;
9166;SDS011;4618;48.818;9.088;2023-06-10T07:48:17;4.35;;;4.05;;
9166;SDS011;4618;48.818;9.088;2023-06-10T07:50:43;7.72;;;3.67;;
9166;SDS011;4618;48.818;9.088;2023-06-10T07:53:09;3.88;;;3.67;;
9166;SDS011;4618;48.818;9.088;2023-06-10T07:55:35;3.47;;;3.28;;
9166;SDS011;4618;48.818;9.088;2023-06-10T07:58:01;3.53;;;3.33;;
9166;SDS011;4618;48.818;9.088;2023-06-10T08:00:26;3.38;;;3.17;;
9166;SDS011;4618;48.818;9.088;2023-06-10T08:02:52;3.47;;;3.28;;
9166;SDS011;4618;48.818;9.088;2023-06-10T08:05:17;3.70;;;3.50;;
9166;SDS011;4618;48.818;9.088;2023-06-10T08:07:44;4.07;;;3.78;;
9166;SDS011;4618;48.818;9.088;2023-06-10T08:10:10;4.28;;;3.88;;
9166;SDS011;4618;48.818;9.088;2023-06-10T08:12:36;3.67;;;3.47;;
9166;SDS011;4618;48.818;9.088;2023-06-10T08:15:02;3.90;;;3.50;;
9166;SDS011;4618;48.818;9.088;2023-06-10T08:17:31;3.85;;;3.53;;
9166;SDS011;4618;48.818;9.088;2023-06-10T08:19:56;3.83;;;3.47;;
9166;SDS011;4618;48.818;9.088;2023-06-10T08:22:22;4.75;;;3.55;;
9166;SDS011;4618;48.818;9.088;2023-06-10T08:24:48;3.90;;;3.60;;
9166;SDS011;4618;48.818;9.088;2023-06-10T08:27:13;3.90;;;3.70;;
9166;SDS011;4618;48.818;9.088;2023-06-10T08:29:39;5.45;;;3.65;;
9166;SDS011;4618;48.818;9.088;2023-06-10T08:32:05;5.05;;;4.25;;
9166;SDS011;4618;48.818;9.088;2023-06-10T08:34:33;3.80;;;3.50;;
9166;SDS011;4618;48.818;9.088;2023-06-10T08:37:00;6.05;;;4.00;;
9166;SDS011;4618;48.818;9.088;2023-06-10T08:39:25;4.07;;;3.67;;
9166;SDS011;4618;48.818;9.088;2023-06-10T08:41:57;4.00;;;3.70;;
9166;SDS011;4618;48.818;9.088;2023-06-10T08:44:27;3.88;;;3.58;;
9166;SDS011;4618;48.818;9.088;2023-06-10T08:46:54;4.32;;;3.75;;
9166;SDS011;4618;48.818;9.088;2023-06-10T08:49:23;3.47;;;3.28;;
9166;SDS011;4618;48.818;9.088;2023-06-10T08:51:51;3.83;;;3.60;;
9166;SDS011;4618;48.818;9.088;2023-06-10T08:54:21;4.03;;;3.72;;
9166;SDS011;4618;48.818;9.088;2023-06-10T08:56:50;4.18;;;3.88;;
9166;SDS011;4618;48.818;9.088;2023-06-10T08:59:18;3.67;;;3.38;;
9166;SDS011;4618;48.818;9.088;2023-06-10T09:01:44;3.58;;;3.38;;
9166;SDS011;4618;48.818;9.088;2023-06-10T09:04:11;4.35;;;3.70;;
9166;SDS011;4618;48.818;9.088;2023-06-10T09:06:37;3.80;;;3.50;;
9166;SDS011;4618;48.818;9.088;2023-06-10T09:09:03;4.15;;;3.85;;
9166;SDS011;4618;48.818;9.088;2023-06-10T09:11:31;3.70;;;3.40;;
9166;SDS011;4618;48.818;9.088;2023-06-10T09:13:57;3.50;;;3.20;;
9166;SDS011;4618;48.818;9.088;2023-06-10T09:16:23;4.15;;;3.45;;
9166;SDS011;4618;48.818;9.088;2023-06-10T09:18:50;3.97;;;3.67;;
9166;SDS011;4618;48.818;9.088;2023-06-10T09:21:20;3.85;;;3.55;;
9166;SDS011;4618;48.818;9.088;2023-06-10T09:23:46;3.47;;;3.28;;
9166;SDS011;4618;48.818;9.088;2023-06-10T09:26:13;3.90;;;3.50;;
9166;SDS011;4618;48.818;9.088;2023-06-10T09:28:38;3.45;;;3.25;;
9166;SDS011;4618;48.818;9.088;2023-06-10T09:31:05;3.42;;;3.22;;
9166;SDS011;4618;48.818;9.088;2023-06-10T09:33:32;3.95;;;3.65;;
9166;SDS011;4618;48.818;9.088;2023-06-10T09:36:02;3.55;;;3.33;;
9166;SDS011;4618;48.818;9.088;2023-06-10T09:38:31;3.70;;;3.40;;
9166;SDS011;4618;48.818;9.088;2023-06-10T09:40:59;3.92;;;2.92;;
9166;SDS011;4618;48.818;9.088;2023-06-10T09:43:38;3.58;;;3.38;;
9166;SDS011;4618;48.818;9.088;2023-06-10T09:46:14;4.07;;;3.80;;
9166;SDS011;4618;48.818;9.088;2023-06-10T09:48:42;4.75;;;3.25;;
9166;SDS011;4618;48.818;9.088;2023-06-10T09:51:09;4.55;;;3.15;;
9166;SDS011;4618;48.818;9.088;2023-06-10T09:53:35;3.80;;;3.45;;
9166;SDS011;4618;48.818;9.088;2023-06-10T09:56:01;4.13;;;3.03;;
9166;SDS011;4618;48.818;9.088;2023-06-10T09:58:34;3.47;;;3.17;;
9166;SDS011;4618;48.818;9.088;2023-06-10T10:01:09;3.45;;;3.22;;
9166;SDS011;4618;48.818;9.088;2023-06-10T10:06:11;3.67;;;3.47;;
9166;SDS011;4618;48.818;9.088;2023-06-10T10:08:38;3.55;;;3.30;;
9166;SDS011;4618;48.818;9.088;2023-06-10T10:11:04;2.95;;;2.75;;
9166;SDS011;4618;48.818;9.088;2023-06-10T10:13:30;2.85;;;2.75;;
9166;SDS011;4618;48.818;9.088;2023-06-10T10:15:59;3.10;;;2.88;;
9166;SDS011;4618;48.818;9.088;2023-06-10T10:18:29;3.03;;;2.83;;
9166;SDS011;4618;48.818;9.088;2023-06-10T10:20:56;3.05;;;2.90;;
9166;SDS011;4618;48.818;9.088;2023-06-10T10:23:39;3.13;;;2.97;;
9166;SDS011;4618;48.818;9.088;2023-06-10T10:26:26;3.05;;;2.85;;
9166;SDS011;4618;48.818;9.088;2023-06-10T10:29:07;4.45;;;3.10;;
9166;SDS011;4618;48.818;9.088;2023-06-10T10:31:39;3.78;;;2.90;;
9166;SDS011;4618;48.818;9.088;2023-06-10T10:34:10;6.53;;;3.42;;
9166;SDS011;4618;48.818;9.088;2023-06-10T10:36:40;3.33;;;3.00;;
9166;SDS011;4618;48.818;9.088;2023-06-10T10:39:06;3.22;;;3.00;;
9166;SDS011;4618;48.818;9.088;2023-06-10T10:41:32;3.30;;;2.90;;
9166;SDS011;4618;48.818;9.088;2023-06-10T10:43:58;3.33;;;3.03;;
9166;SDS011;4618;48.818;9.088;2023-06-10T10:46:25;3.20;;;3.00;;
9166;SDS011;4618;48.818;9.088;2023-06-10T10:48:51;2.88;;;2.78;;
9166;SDS011;4618;48.818;9.088;2023-06-10T10:51:18;2.90;;;2.70;;
9166;SDS011;4618;48.818;9.088;2023-06-10T10:53:44;3.10;;;2.90;;
9166;SDS011;4618;48.818;9.088;2023-06-10T10:56:30;3.08;;;2.88;;
9166;SDS011;4618;48.818;9.088;2023-06-10T10:59:03;3.10;;;2.70;;
9166;SDS011;4618;48.818;9.088;2023-06-10T11:01:42;2.72;;;2.53;;
9166;SDS011;4618;48.818;9.088;2023-06-10T11:04:11;2.95;;;2.75;;
9166;SDS011;4618;48.818;9.088;2023-06-10T11:06:37;3.03;;;2.70;;
9166;SDS011;4618;48.818;9.088;2023-06-10T11:12:00;2.70;;;2.50;;
9166;SDS011;4618;48.818;9.088;2023-06-10T11:14:29;3.25;;;2.97;;
9166;SDS011;4618;48.818;9.088;2023-06-10T11:16:56;3.22;;;2.90;;
9166;SDS011;4618;48.818;9.088;2023-06-10T11:19:36;2.63;;;2.53;;
9166;SDS011;4618;48.818;9.088;2023-06-10T11:22:05;3.63;;;2.58;;
9166;SDS011;4618;48.818;9.088;2023-06-10T11:24:32;3.20;;;3.00;;
9166;SDS011;4618;48.818;9.088;2023-06-10T11:30:28;3.22;;;2.88;;
9166;SDS011;4618;48.818;9.088;2023-06-10T11:32:32;2.78;;;2.58;;
9166;SDS011;4618;48.818;9.088;2023-06-10T11:34:59;2.45;;;2.25;;
9166;SDS011;4618;48.818;9.088;2023-06-10T11:37:27;2.70;;;2.50;;
9166;SDS011;4618;48.818;9.088;2023-06-10T11:39:53;2.92;;;2.63;;
9166;SDS011;4618;48.818;9.088;2023-06-10T11:42:20;2.63;;;2.42;;
9166;SDS011;4618;48.818;9.088;2023-06-10T11:44:50;2.83;;;2.50;;
9166;SDS011;4618;48.818;9.088;2023-06-10T11:47:17;3.10;;;2.90;;
9166;SDS011;4618;48.818;9.088;2023-06-10T11:49:43;2.70;;;2.50;;
9166;SDS011;4618;48.818;9.088;2023-06-10T11:52:10;2.88;;;2.67;;
9166;SDS011;4618;48.818;9.088;2023-06-10T11:54:36;2.88;;;2.67;;
9166;SDS011;4618;48.818;9.088;2023-06-10T11:57:02;2.45;;;2.35;;
9166;SDS011;4618;48.818;9.088;2023-06-10T11:59:28;3.05;;;2.15;;
9166;SDS011;4618;48.818;9.088;2023-06-10T12:01:54;2.75;;;2.22;;
9166;SDS011;4618;48.818;9.088;2023-06-10T12:04:20;5.45;;;2.40;;
9166;SDS011;4618;48.818;9.088;2023-06-10T12:06:50;2.80;;;2.60;;
9166;SDS011;4618;48.818;9.088;2023-06-10T12:09:20;2.30;;;2.20;;
9166;SDS011;4618;48.818;9.088;2023-06-10T12:11:50;2.28;;;2.15;;
9166;SDS011;4618;48.818;9.088;2023-06-10T12:14:16;2.40;;;2.20;;
9166;SDS011;4618;48.818;9.088;2023-06-10T12:19:50;2.95;;;2.40;;
9166;SDS011;4618;48.818;9.088;2023-06-10T12:22:16;2.60;;;2.40;;
9166;SDS011;4618;48.818;9.088;2023-06-10T12:25:00;2.40;;;2.30;;
9166;SDS011;4618;48.818;9.088;2023-06-10T12:27:28;2.38;;;2.22;;
9166;SDS011;4618;48.818;9.088;2023-06-10T12:29:55;2.53;;;2.33;;
9166;SDS011;4618;48.818;9.088;2023-06-10T12:32:34;2.92;;;2.63;;
9166;SDS011;4618;48.818;9.088;2023-06-10T12:35:04;2.55;;;2.35;;
9166;SDS011;4618;48.818;9.088;2023-06-10T12:37:30;2.53;;;2.15;;
9166;SDS011;4618;48.818;9.088;2023-06-10T12:39:59;2.40;;;2.20;;
9166;SDS011;4618;48.818;9.088;2023-06-10T12:42:26;2.20;;;2.10;;
9166;SDS011;4618;48.818;9.088;2023-06-10T12:44:55;1.90;;;1.80;;
9166;SDS011;4618;48.818;9.088;2023-06-10T12:47:31;4.00;;;2.33;;
9166;SDS011;4618;48.818;9.088;2023-06-10T12:49:59;2.30;;;2.20;;
9166;SDS011;4618;48.818;9.088;2023-06-10T12:52:26;3.17;;;2.97;;
9166;SDS011;4618;48.818;9.088;2023-06-10T12:54:52;2.70;;;2.50;;
9166;SDS011;4618;48.818;9.088;2023-06-10T12:57:19;4.45;;;2.50;;
9166;SDS011;4618;48.818;9.088;2023-06-10T12:59:44;2.95;;;2.80;;
9166;SDS011;4618;48.818;9.088;2023-06-10T13:02:15;4.20;;;2.70;;
9166;SDS011;4618;48.818;9.088;2023-06-10T13:04:44;3.00;;;2.80;;
9166;SDS011;4618;48.818;9.088;2023-06-10T13:07:10;2.90;;;2.70;;
9166;SDS011;4618;48.818;9.088;2023-06-10T13:09:36;3.53;;;3.03;;
9166;SDS011;4618;48.818;9.088;2023-06-10T13:12:02;4.40;;;3.00;;
9166;SDS011;4618;48.818;9.088;2023-06-10T13:14:28;2.97;;;2.78;;
9166;SDS011;4618;48.818;9.088;2023-06-10T13:16:54;2.63;;;2.42;;
9166;SDS011;4618;48.818;9.088;2023-06-10T13:19:20;2.53;;;2.30;;
9166;SDS011;4618;48.818;9.088;2023-06-10T13:21:46;2.03;;;1.92;;
9166;SDS011;4618;48.818;9.088;2023-06-10T13:24:12;2.88;;;2.10;;
9166;SDS011;4618;48.818;9.088;2023-06-10T13:26:38;2.67;;;2.35;;
9166;SDS011;4618;48.818;9.088;2023-06-10T13:29:03;2.85;;;2.60;;
9166;SDS011;4618;48.818;9.088;2023-06-10T13:31:30;4.47;;;3.60;;
9166;SDS011;4618;48.818;9.088;2023-06-10T13:33:57;3.22;;;3.03;;
9166;SDS011;4618;48.818;9.088;2023-06-10T13:36:23;3.22;;;2.70;;
9166;SDS011;4618;48.818;9.088;2023-06-10T13:38:49;3.03;;;2.67;;
9166;SDS011;4618;48.818;9.088;2023-06-10T13:41:14;2.88;;;2.67;;
9166;SDS011;4618;48.818;9.088;2023-06-10T13:43:40;2.58;;;2.45;;
9166;SDS011;4618;48.818;9.088;2023-06-10T13:46:06;6.40;;;2.90;;
9166;SDS011;4618;48.818;9.088;2023-06-10T13:48:31;2.50;;;2.30;;
9166;SDS011;4618;48.818;9.088;2023-06-10T13:50:57;2.13;;;2.03;;
9166;SDS011;4618;48.818;9.088;2023-06-10T13:53:22;3.05;;;2.10;;
9166;SDS011;4618;48.818;9.088;2023-06-10T13:55:48;2.10;;;2.00;;
9166;SDS011;4618;48.818;9.088;2023-06-10T13:58:13;2.85;;;2.00;;
9166;SDS011;4618;48.818;9.088;2023-06-10T14:00:39;1.80;;;1.70;;
9166;SDS011;4618;48.818;9.088;2023-06-10T14:03:04;3.67;;;1.80;;
9166;SDS011;4618;48.818;9.088;2023-06-10T14:05:30;1.95;;;1.85;;
9166;SDS011;4618;48.818;9.088;2023-06-10T14:07:56;4.22;;;2.05;;
9166;SDS011;4618;48.818;9.088;2023-06-10T14:10:22;2.15;;;1.98;;
9166;SDS011;4618;48.818;9.088;2023-06-10T14:12:47;2.17;;;2.08;;
9166;SDS011;4618;48.818;9.088;2023-06-10T14:15:13;2.00;;;1.90;;
9166;SDS011;4618;48.818;9.088;2023-06-10T14:17:38;2.55;;;1.83;;
9166;SDS011;4618;48.818;9.088;2023-06-10T14:20:04;1.80;;;1.70;;
9166;SDS011;4618;48.818;9.088;2023-06-10T14:22:30;2.03;;;1.85;;
9166;SDS011;4618;48.818;9.088;2023-06-10T14:24:56;2.10;;;2.00;;
9166;SDS011;4618;48.818;9.088;2023-06-10T14:27:21;2.45;;;2.25;;
9166;SDS011;4618;48.818;9.088;2023-06-10T14:29:47;2.95;;;2.30;;
9166;SDS011;4618;48.818;9.088;2023-06-10T14:32:12;2.70;;;2.20;;
9166;SDS011;4618;48.818;9.088;2023-06-10T14:34:38;2.28;;;2.17;;
9166;SDS011;4618;48.818;9.088;2023-06-10T14:37:04;2.40;;;2.30;;
9166;SDS011;4618;48.818;9.088;2023-06-10T14:39:32;2.00;;;1.90;;
9166;SDS011;4618;48.818;9.088;2023-06-10T14:41:58;2.45;;;2.30;;
9166;SDS011;4618;48.818;9.088;2023-06-10T14:44:23;2.53;;;2.05;;
9166;SDS011;4618;48.818;9.088;2023-06-10T14:46:49;2.53;;;2.00;;
9166;SDS011;4618;48.818;9.088;2023-06-10T14:49:15;2.33;;;2.17;;
9166;SDS011;4618;48.818;9.088;2023-06-10T14:51:40;3.13;;;2.67;;
9166;SDS011;4618;48.818;9.088;2023-06-10T14:54:06;2.50;;;2.30;;
9166;SDS011;4618;48.818;9.088;2023-06-10T14:56:31;2.75;;;2.65;;
9166;SDS011;4618;48.818;9.088;2023-06-10T14:58:57;3.05;;;2.60;;
9166;SDS011;4618;48.818;9.088;2023-06-10T15:01:23;4.88;;;4.57;;
9166;SDS011;4618;48.818;9.088;2023-06-10T15:03:48;2.83;;;2.63;;
9166;SDS011;4618;48.818;9.088;2023-06-10T15:06:14;3.45;;;2.40;;
9166;SDS011;4618;48.818;9.088;2023-06-10T15:08:42;2.92;;;2.72;;
9166;SDS011;4618;48.818;9.088;2023-06-10T15:11:08;2.60;;;2.40;;
9166;SDS011;4618;48.818;9.088;2023-06-10T15:13:33;2.65;;;2.45;;
9166;SDS011;4618;48.818;9.088;2023-06-10T15:15:59;2.25;;;2.15;;
9166;SDS011;4618;48.818;9.088;2023-06-10T15:18:24;3.67;;;2.80;;
9166;SDS011;4618;48.818;9.088;2023-06-10T15:20:50;3.22;;;2.58;;